Time;durP1;ratioP1;P1;durP2;ratioP2;P2;SDS_P1;SDS_P2;PMS_P1;PMS_P2;Temp;Humidity;BMP_temperature;BMP_pressure;BME280_temperature;BME280_humidity;BME280_pressure;Samples;Min_cycle;Max_cycle;Signal;HPM_P1;HPM_P2
2023/10/10 00:01:02;;;;;;;5.50;2.60;;;;;;;17.17;100.00;101114.84;5028983;28;20025;-67
2023/10/10 00:03:31;;;;;;;3.95;2.35;;;;;;;17.17;100.00;101128.44;5028783;28;20029;-67
2023/10/10 00:05:58;;;;;;;4.20;2.15;;;;;;;17.16;100.00;101118.75;5028058;28;20048;-67
2023/10/10 00:08:35;;;;;;;5.65;2.55;;;;;;;17.15;100.00;101123.41;5025832;28;20079;-65
2023/10/10 00:11:09;;;;;;;4.97;2.78;;;;;;;17.14;100.00;101112.91;5031636;28;20041;-67
2023/10/10 00:13:42;;;;;;;4.60;2.65;;;;;;;17.17;100.00;101112.13;5030256;28;20064;-67
2023/10/10 00:19:29;;;;;;;6.18;2.92;;;;;;;17.14;100.00;101112.91;5030070;28;20064;-65
2023/10/10 00:21:55;;;;;;;6.70;3.42;;;;;;;17.13;100.00;101111.34;5030855;28;20041;-67
2023/10/10 00:24:25;;;;;;;4.03;2.47;;;;;;;17.14;100.00;101107.47;5025231;28;20500;-67
2023/10/10 00:26:52;;;;;;;5.10;2.75;;;;;;;17.13;100.00;101098.50;5030445;28;20555;-66
2023/10/10 00:29:21;;;;;;;6.03;2.20;;;;;;;17.15;100.00;101100.84;5030760;28;20025;-67
2023/10/10 00:31:55;;;;;;;5.05;2.40;;;;;;;17.17;100.00;101101.22;5032168;28;20028;-66
2023/10/10 00:34:27;;;;;;;4.25;2.33;;;;;;;17.14;100.00;101097.34;5028868;28;20037;-67
2023/10/10 00:36:53;;;;;;;3.65;2.17;;;;;;;17.12;100.00;101102.41;5026610;28;20022;-68
2023/10/10 00:42:04;;;;;;;4.70;2.53;;;;;;;17.12;100.00;101090.75;5030371;28;20129;-67
2023/10/10 00:44:30;;;;;;;5.85;2.50;;;;;;;17.09;100.00;101091.53;5027181;28;20029;-67
2023/10/10 00:46:58;;;;;;;5.68;2.58;;;;;;;17.06;100.00;101082.19;5030794;28;20029;-67
2023/10/10 00:49:31;;;;;;;5.13;2.47;;;;;;;17.06;100.00;101087.63;5013139;28;20545;-68
2023/10/10 00:52:13;;;;;;;7.03;2.65;;;;;;;17.07;100.00;101088.41;5030144;28;20040;-66
2023/10/10 00:54:43;;;;;;;4.70;2.10;;;;;;;17.07;100.00;101082.97;5028935;28;20114;-67
2023/10/10 00:57:21;;;;;;;4.10;2.17;;;;;;;17.04;100.00;101083.72;5028275;28;20036;-67
2023/10/10 00:59:54;;;;;;;9.68;3.05;;;;;;;17.03;100.00;101087.63;5029446;28;20288;-68
2023/10/10 01:02:20;;;;;;;5.18;2.97;;;;;;;17.04;100.00;101086.44;5026543;28;20537;-67
2023/10/10 01:07:19;;;;;;;4.18;2.55;;;;;;;17.02;100.00;101092.28;5029776;28;20072;-66
2023/10/10 01:09:55;;;;;;;6.30;2.60;;;;;;;17.04;100.00;101097.34;5028725;28;20068;-67
2023/10/10 01:12:28;;;;;;;6.00;2.58;;;;;;;16.97;100.00;101089.19;5030839;28;20049;-67
2023/10/10 01:14:57;;;;;;;6.82;2.83;;;;;;;16.96;100.00;101090.31;5029047;28;20496;-68
2023/10/10 01:17:29;;;;;;;8.23;3.08;;;;;;;16.98;100.00;101088.00;5027586;28;20136;-68
2023/10/10 01:20:14;;;;;;;7.10;2.90;;;;;;;16.98;100.00;101085.28;5024160;28;20116;-68
2023/10/10 01:22:46;;;;;;;4.13;2.50;;;;;;;16.91;100.00;101099.66;5024481;28;20084;-66
2023/10/10 01:25:42;;;;;;;5.50;2.50;;;;;;;16.91;100.00;101094.22;5028391;28;20033;-66
2023/10/10 01:28:14;;;;;;;4.03;2.30;;;;;;;16.88;100.00;101096.91;5028691;28;20029;-67
2023/10/10 01:33:25;;;;;;;4.47;1.85;;;;;;;16.82;100.00;101093.03;5024577;28;20309;-68
2023/10/10 01:35:55;;;;;;;3.80;2.30;;;;;;;16.81;100.00;101092.25;5027419;28;20092;-67
2023/10/10 01:38:32;;;;;;;5.50;2.58;;;;;;;16.78;100.00;101081.38;5010887;28;20303;-68
2023/10/10 01:41:05;;;;;;;3.65;2.17;;;;;;;16.76;100.00;101089.91;5026010;28;20448;-67
2023/10/10 01:43:36;;;;;;;5.95;2.67;;;;;;;16.73;100.00;101089.91;5025118;28;20024;-68
2023/10/10 01:46:18;;;;;;;5.88;2.47;;;;;;;16.70;100.00;101086.03;5026659;28;20453;-68
2023/10/10 01:48:43;;;;;;;;;;;;;;;16.70;100.00;101086.03;5026900;28;20406;-67
2023/10/10 01:51:10;;;;;;;6.85;2.47;;;;;;;16.68;100.00;101095.72;5029168;28;19925;-68
2023/10/10 01:53:40;;;;;;;4.95;2.47;;;;;;;16.68;100.00;101090.28;5024971;28;20034;-68
2023/10/10 01:56:07;;;;;;;4.97;2.78;;;;;;;16.60;100.00;101091.41;5027171;28;20037;-68
2023/10/10 01:58:36;;;;;;;7.45;2.60;;;;;;;16.62;100.00;101100.75;5010702;28;20394;-67
2023/10/10 02:01:13;;;;;;;5.05;2.55;;;;;;;16.63;100.00;101101.53;5021713;28;20406;-68
2023/10/10 02:03:42;;;;;;;4.95;2.30;;;;;;;16.60;100.00;101096.88;5024318;28;20034;-68
2023/10/10 02:06:13;;;;;;;7.15;2.30;;;;;;;16.48;100.00;101110.78;5030847;28;20029;-69
2023/10/10 02:08:41;;;;;;;6.28;2.65;;;;;;;16.50;100.00;101108.47;5026784;28;20033;-65
2023/10/10 02:11:12;;;;;;;6.35;3.05;;;;;;;16.48;100.00;101103.44;5028902;28;20060;-67
2023/10/10 02:13:39;;;;;;;5.20;2.47;;;;;;;16.49;100.00;101110.41;5023080;28;20456;-67
2023/10/10 02:16:06;;;;;;;6.43;2.88;;;;;;;16.47;100.00;101098.34;5025417;28;20060;-68
2023/10/10 02:18:51;;;;;;;6.60;2.30;;;;;;;16.41;100.00;101100.66;5026800;28;20033;-68
2023/10/10 02:21:32;;;;;;;8.95;3.33;;;;;;;16.38;100.00;101109.56;5018210;28;20968;-68
2023/10/10 02:24:25;;;;;;;6.72;3.10;;;;;;;16.35;100.00;101115.00;5025853;28;20029;-68
2023/10/10 02:26:58;;;;;;;8.55;2.75;;;;;;;16.33;100.00;101117.31;5025863;28;20033;-68
2023/10/10 02:32:18;;;;;;;6.85;2.85;;;;;;;16.30;100.00;101116.13;5024647;28;20056;-68
2023/10/10 02:34:55;;;;;;;6.68;3.20;;;;;;;16.30;100.00;101120.81;5029653;28;20029;-68
2023/10/10 02:37:41;;;;;;;8.55;2.78;;;;;;;16.25;100.00;101111.84;5025069;28;20029;-67
2023/10/10 02:40:16;;;;;;;7.72;3.00;;;;;;;16.24;100.00;101106.78;5029364;28;20067;-68
2023/10/10 02:45:37;;;;;;;8.68;3.17;;;;;;;16.22;100.00;101107.16;5006933;28;20081;-68
2023/10/10 02:48:07;;;;;;;8.60;2.88;;;;;;;16.27;100.00;101116.91;5027543;28;20034;-68
2023/10/10 02:50:40;;;;;;;7.00;2.92;;;;;;;16.26;100.00;101124.28;5023055;28;20025;-68
2023/10/10 02:53:08;;;;;;;8.68;2.97;;;;;;;16.25;100.00;101117.28;5027240;28;20030;-68
2023/10/10 02:55:50;;;;;;;7.85;3.45;;;;;;;16.21;100.00;101118.44;5024483;28;20029;-68
2023/10/10 02:58:22;;;;;;;11.07;3.70;;;;;;;16.26;100.00;101123.50;5008417;28;20052;-68
2023/10/10 03:00:52;;;;;;;8.57;3.83;;;;;;;16.21;100.00;101123.88;5019224;28;20060;-69
2023/10/10 03:03:18;;;;;;;7.57;3.78;;;;;;;16.21;100.00;101110.28;5038551;28;20033;-67
2023/10/10 03:05:54;;;;;;;9.90;3.75;;;;;;;16.11;100.00;101114.50;5010285;28;20103;-68
2023/10/10 03:11:00;;;;;;;7.18;3.50;;;;;;;16.16;100.00;101114.13;5026019;28;20544;-68
2023/10/10 03:13:28;;;;;;;11.13;3.92;;;;;;;16.17;100.00;101106.75;5027409;28;20406;-67
2023/10/10 03:18:53;;;;;;;8.43;3.90;;;;;;;16.19;100.00;101105.22;5028204;28;20079;-65
2023/10/10 03:24:15;;;;;;;8.50;4.03;;;;;;;16.08;100.00;101117.19;5029604;28;20026;-68
2023/10/10 03:29:11;;;;;;;11.93;4.20;;;;;;;16.00;100.00;101115.59;5029910;28;20707;-68
2023/10/10 03:31:48;;;;;;;8.32;3.65;;;;;;;15.96;100.00;101107.44;5036203;28;20030;-68
2023/10/10 03:36:48;;;;;;;10.27;4.15;;;;;;;15.98;100.00;101107.84;5030167;28;20050;-69
2023/10/10 03:39:25;;;;;;;16.80;3.92;;;;;;;16.01;100.00;101109.78;5029815;28;20044;-68
2023/10/10 05:25:50;;;;;;;15.00;4.22;;;;;;;15.98;100.00;101115.19;5022719;28;20034;-68
2023/10/10 05:28:20;;;;;;;13.18;4.43;;;;;;;15.94;100.00;101119.84;5027553;28;20038;-67
2023/10/10 05:30:46;;;;;;;11.80;4.65;;;;;;;15.91;100.00;101124.06;5024171;28;20041;-68
2023/10/10 05:33:12;;;;;;;8.98;3.72;;;;;;;15.95;100.00;101119.44;5027328;28;20034;-68
2023/10/10 05:35:40;;;;;;;11.45;3.53;;;;;;;15.93;100.00;101129.16;5025201;28;20033;-68
2023/10/10 05:38:09;;;;;;;7.35;3.22;;;;;;;15.97;100.00;101133.44;5026650;28;20025;-68
2023/10/10 05:40:38;;;;;;;14.23;4.55;;;;;;;15.99;100.00;101127.63;5027317;28;20049;-67
2023/10/10 05:43:19;;;;;;;10.40;3.78;;;;;;;15.99;100.00;101127.63;5025810;28;20052;-67
2023/10/10 05:45:48;;;;;;;11.18;3.92;;;;;;;15.98;100.00;101131.50;5033061;28;20077;-66
2023/10/10 05:48:14;;;;;;;13.93;3.80;;;;;;;15.99;100.00;101127.63;5024647;28;20403;-66
2023/10/10 05:50:40;;;;;;;17.13;4.25;;;;;;;15.98;100.00;101126.06;5026482;28;20045;-67
2023/10/10 05:53:07;;;;;;;10.18;4.00;;;;;;;15.92;100.00;101138.44;5022954;28;20524;-67
2023/10/10 05:55:33;;;;;;;9.77;3.67;;;;;;;15.92;100.00;101131.09;5025200;28;20482;-66
2023/10/10 05:58:02;;;;;;;11.60;4.03;;;;;;;15.98;100.00;101132.28;5024296;28;20033;-66
2023/10/10 06:00:32;;;;;;;12.73;3.97;;;;;;;16.02;100.00;101138.53;5027435;28;20116;-65
2023/10/10 06:02:57;;;;;;;11.00;3.65;;;;;;;16.08;100.00;101136.22;5022870;28;20489;-66
2023/10/10 06:05:22;;;;;;;11.13;4.00;;;;;;;16.06;100.00;101142.03;5024515;28;20152;-68
2023/10/10 06:07:49;;;;;;;14.75;4.20;;;;;;;16.10;100.00;101144.78;5022479;28;20108;-67
2023/10/10 06:10:16;;;;;;;10.55;3.95;;;;;;;16.14;100.00;101140.16;5027592;28;20029;-67
2023/10/10 06:12:45;;;;;;;13.27;4.78;;;;;;;16.07;100.00;101131.94;5024493;28;20026;-67
2023/10/10 06:15:18;;;;;;;12.30;4.30;;;;;;;16.03;100.00;101129.19;5026803;28;20042;-67
2023/10/10 06:17:45;;;;;;;11.35;4.10;;;;;;;16.06;100.00;101143.97;5024264;28;20048;-65
2023/10/10 06:20:15;;;;;;;15.23;4.72;;;;;;;16.10;100.00;101139.34;5020506;28;20064;-66
2023/10/10 06:22:41;;;;;;;12.52;3.65;;;;;;;16.08;100.00;101141.66;5024025;28;20021;-67
2023/10/10 06:25:09;;;;;;;12.35;4.32;;;;;;;16.01;100.00;101147.03;5020490;28;20117;-67
2023/10/10 06:27:37;;;;;;;13.45;4.25;;;;;;;16.02;100.00;101146.69;5022280;28;20768;-67
2023/10/10 06:30:05;;;;;;;12.80;4.60;;;;;;;16.03;100.00;101129.19;5029305;28;20053;-67
2023/10/10 06:32:31;;;;;;;12.82;4.50;;;;;;;15.96;100.00;101145.47;5028853;28;20076;-67
2023/10/10 06:37:42;;;;;;;18.67;4.28;;;;;;;16.03;100.00;101139.28;5024730;28;20084;-66
2023/10/10 06:40:09;;;;;;;12.48;3.80;;;;;;;16.07;100.00;101134.66;5028390;28;20048;-66
2023/10/10 06:42:35;;;;;;;12.40;4.50;;;;;;;16.15;100.00;101131.59;5026568;28;20029;-67
2023/10/10 06:45:10;;;;;;;12.82;4.78;;;;;;;16.19;100.00;101132.41;5010210;28;20060;-66
2023/10/10 06:47:39;;;;;;;12.52;4.40;;;;;;;16.10;100.00;101140.09;5028008;28;20116;-68
2023/10/10 06:50:11;;;;;;;17.15;4.82;;;;;;;16.19;100.00;101140.56;5029243;28;20437;-67
2023/10/10 06:52:37;;;;;;;14.48;4.82;;;;;;;16.22;100.00;101137.06;5026343;28;20124;-66
2023/10/10 06:55:13;;;;;;;13.18;4.57;;;;;;;16.28;100.00;101149.13;5034676;28;20436;-68
2023/10/10 06:57:45;;;;;;;13.70;4.53;;;;;;;16.35;100.00;101147.63;5031289;28;20041;-66
2023/10/10 07:02:49;;;;;;;12.27;4.53;;;;;;;16.36;100.00;101147.22;5032168;28;20037;-66
2023/10/10 07:05:15;;;;;;;13.38;4.55;;;;;;;16.26;100.00;101148.75;5033077;28;20048;-67
2023/10/10 07:07:41;;;;;;;15.82;4.18;;;;;;;16.15;100.00;101139.75;5033119;28;20037;-67
2023/10/10 07:10:09;;;;;;;12.50;4.90;;;;;;;16.13;100.00;101150.22;5027195;28;20030;-67
2023/10/10 07:12:38;;;;;;;13.68;4.15;;;;;;;16.17;100.00;101142.09;5033766;28;20025;-65
2023/10/10 07:15:08;;;;;;;16.60;4.97;;;;;;;16.10;100.00;101153.69;5038838;28;20063;-67
2023/10/10 07:17:38;;;;;;;11.18;4.05;;;;;;;16.04;100.00;101152.50;5015725;28;20034;-67
2023/10/10 07:22:34;;;;;;;12.73;3.83;;;;;;;16.11;100.00;101146.31;5031444;28;20525;-68
2023/10/10 07:25:07;;;;;;;16.77;4.63;;;;;;;16.25;100.00;101146.41;5030945;28;20048;-67
2023/10/10 07:27:41;;;;;;;10.30;3.53;;;;;;;16.31;100.00;101142.16;5027888;28;20030;-66
2023/10/10 07:30:16;;;;;;;12.57;4.28;;;;;;;16.35;100.00;101144.91;5032839;28;20453;-66
2023/10/10 07:32:48;;;;;;;16.90;5.35;;;;;;;16.44;100.00;101151.53;5032347;28;20095;-68
2023/10/10 07:35:25;;;;;;;13.07;4.15;;;;;;;16.42;100.00;101147.63;5033015;28;20036;-68
2023/10/10 07:37:52;;;;;;;10.77;3.80;;;;;;;16.38;100.00;101158.50;5031697;28;20029;-68
2023/10/10 07:40:20;;;;;;;13.65;4.25;;;;;;;16.40;100.00;101156.19;5026620;28;20021;-64
2023/10/10 07:42:57;;;;;;;11.60;4.32;;;;;;;16.41;100.00;101148.81;5032768;28;20034;-68
2023/10/10 07:45:33;;;;;;;11.90;3.67;;;;;;;16.46;100.00;101146.50;5033225;28;20033;-68
2023/10/10 07:50:46;;;;;;;14.77;4.60;;;;;;;16.63;100.00;101153.19;5032845;28;20040;-68
2023/10/10 07:53:13;;;;;;;9.18;3.25;;;;;;;16.66;100.00;101153.22;5033644;28;20095;-68
2023/10/10 07:58:25;;;;;;;11.57;3.70;;;;;;;16.71;100.00;101141.19;5031305;28;20069;-67
2023/10/10 08:01:08;;;;;;;13.85;3.20;;;;;;;16.77;100.00;101137.72;5031718;28;20484;-67
2023/10/10 08:03:34;;;;;;;16.60;4.38;;;;;;;16.76;100.00;101127.97;5033046;28;20037;-67
2023/10/10 08:06:00;;;;;;;9.75;4.00;;;;;;;16.57;100.00;101133.00;5028102;28;20490;-67
2023/10/10 08:08:25;;;;;;;11.55;3.42;;;;;;;16.45;100.00;101133.31;5032209;28;20040;-65
2023/10/10 08:10:51;;;;;;;10.93;3.15;;;;;;;16.59;100.00;101136.13;5034354;28;20036;-66
2023/10/10 08:13:18;;;;;;;9.32;3.40;;;;;;;16.64;100.00;101143.88;5032269;28;20072;-67
2023/10/10 08:15:50;;;;;;;10.68;3.00;;;;;;;16.67;100.00;101132.22;5028293;28;20041;-67
2023/10/10 08:23:29;;;;;;;8.13;2.92;;;;;;;16.62;100.00;101132.63;5035031;28;20047;-67
2023/10/10 08:25:54;;;;;;;7.47;2.75;;;;;;;16.72;100.00;101134.59;5032924;28;20041;-66
2023/10/10 08:28:21;;;;;;;9.95;3.25;;;;;;;16.73;100.00;101139.66;5032363;28;20042;-67
2023/10/10 08:30:48;;;;;;;7.95;2.83;;;;;;;16.77;100.00;101143.16;5030086;28;20041;-68
2023/10/10 08:33:14;;;;;;;5.88;2.70;;;;;;;16.84;100.00;101147.84;5030381;28;20124;-67
2023/10/10 08:35:39;;;;;;;10.80;2.47;;;;;;;16.86;100.00;101153.69;5032150;28;20116;-69
2023/10/10 08:38:05;;;;;;;9.27;3.05;;;;;;;16.90;100.00;101155.22;5029905;28;20494;-68
2023/10/10 08:40:35;;;;;;;8.15;2.83;;;;;;;16.91;100.00;101143.19;5031199;28;20092;-68
2023/10/10 08:43:07;;;;;;;8.80;2.83;;;;;;;16.94;100.00;101145.13;5032790;28;20108;-68
2023/10/10 08:45:43;;;;;;;9.98;3.60;;;;;;;17.02;100.00;101145.94;5033183;28;20052;-68
2023/10/10 08:48:13;;;;;;;10.95;3.22;;;;;;;16.82;100.00;101148.22;5032867;28;20445;-67
2023/10/10 08:50:42;;;;;;;8.30;3.03;;;;;;;16.88;100.00;101140.44;5029393;28;20049;-68
2023/10/10 08:53:12;;;;;;;9.35;3.00;;;;;;;16.95;100.00;101135.81;5027583;28;20033;-67
2023/10/10 08:55:41;;;;;;;9.32;2.78;;;;;;;16.82;100.00;101133.84;5031232;28;20741;-67
2023/10/10 08:58:08;;;;;;;6.32;2.42;;;;;;;16.92;100.00;101133.84;5028215;28;20030;-67
2023/10/10 09:00:34;;;;;;;14.43;3.90;;;;;;;17.01;100.00;101139.69;5029100;28;20512;-67
2023/10/10 09:03:00;;;;;;;12.60;3.90;;;;;;;17.04;100.00;101132.72;5029259;28;20084;-67
2023/10/10 09:05:28;;;;;;;8.40;3.28;;;;;;;17.03;100.00;101133.91;5032045;28;20041;-66
2023/10/10 09:08:05;;;;;;;9.48;3.03;;;;;;;17.11;100.00;101135.47;5028163;28;20029;-66
2023/10/10 09:10:39;;;;;;;9.32;3.00;;;;;;;17.17;100.00;101131.16;5023810;28;20115;-67
2023/10/10 09:13:07;;;;;;;8.45;2.95;;;;;;;17.20;100.00;101127.69;5047109;28;20026;-67
2023/10/10 09:15:34;;;;;;;6.82;2.75;;;;;;;17.17;100.00;101123.78;5028939;28;20045;-67
2023/10/10 09:18:22;;;;;;;10.00;3.05;;;;;;;17.23;100.00;101128.88;5028369;28;20048;-67
2023/10/10 09:20:51;;;;;;;7.38;2.38;;;;;;;17.27;100.00;101137.78;5030278;28;20030;-68
2023/10/10 09:23:26;;;;;;;9.60;3.33;;;;;;;17.29;100.00;101133.53;5029638;28;20037;-68
2023/10/10 09:26:09;;;;;;;5.22;2.25;;;;;;;17.31;100.00;101122.25;5027393;28;20037;-67
2023/10/10 09:29:15;;;;;;;6.90;2.70;;;;;;;17.38;100.00;101131.19;5026258;28;20033;-67
2023/10/10 09:31:45;;;;;;;6.85;2.38;;;;;;;17.40;100.00;101137.03;5027942;28;20500;-68
2023/10/10 09:34:12;;;;;;;8.13;3.23;;;;;;;17.44;100.00;101143.25;5028292;28;20041;-68
2023/10/10 09:36:39;;;;;;;4.93;2.47;;;;;;;17.49;100.00;101147.56;5028566;28;20037;-68
2023/10/10 09:39:25;;;;;;;5.45;2.60;;;;;;;17.52;100.00;101133.94;5029874;28;20075;-68
2023/10/10 09:42:06;;;;;;;5.72;2.30;;;;;;;17.47;100.00;101145.22;5030665;28;20021;-67
2023/10/10 09:45:16;;;;;;;;;;;;;;;17.49;100.00;101140.19;5022113;28;20033;-68
2023/10/10 09:47:53;;;;;;;6.10;2.22;;;;;;;17.59;100.00;101135.91;5029124;28;19988;-67
2023/10/10 09:52:53;;;;;;;3.42;1.92;;;;;;;17.74;100.00;101137.44;5026187;28;20060;-67
2023/10/10 09:58:01;;;;;;;5.57;2.45;;;;;;;17.88;100.00;101135.50;5029466;28;20459;-67
2023/10/10 10:06:35;;;;;;;8.48;2.25;;;;;;;18.07;100.00;101128.03;5029448;28;20544;-67
2023/10/10 10:09:17;;;;;;;6.10;2.15;;;;;;;18.14;100.00;101128.03;5020229;28;20053;-67
2023/10/10 10:12:31;;;;;;;5.43;2.50;;;;;;;18.20;100.00;101119.03;5027321;28;20041;-66
2023/10/10 10:15:28;;;;;;;3.97;2.17;;;;;;;18.27;100.00;101116.31;5000530;28;20057;-67
2023/10/10 10:18:12;;;;;;;4.05;2.95;;;;;;;18.36;100.00;101124.03;5006608;28;20037;-68
2023/10/10 10:20:47;;;;;;;4.53;2.33;;;;;;;18.41;100.00;101120.91;5036328;28;20124;-68
2023/10/10 10:23:25;;;;;;;7.90;2.53;;;;;;;18.57;100.00;101113.06;5028664;28;20087;-67
2023/10/10 10:25:53;;;;;;;6.93;2.53;;;;;;;18.62;100.00;101118.88;5022710;28;20079;-65
2023/10/10 10:28:28;;;;;;;3.92;2.30;;;;;;;18.67;100.00;101115.75;5027538;28;20033;-68
2023/10/10 10:30:54;;;;;;;3.30;1.85;;;;;;;18.71;100.00;101119.25;5025647;28;20127;-67
2023/10/10 10:33:24;;;;;;;7.13;2.70;;;;;;;18.74;100.00;101121.16;5030060;28;20072;-67
2023/10/10 10:36:05;;;;;;;4.72;2.28;;;;;;;18.79;100.00;101117.25;5030145;28;20461;-67
2023/10/10 10:38:31;;;;;;;;;;;;;;;18.81;100.00;101112.94;5028161;28;20037;-67
2023/10/10 10:41:16;;;;;;;4.00;2.05;;;;;;;18.92;100.00;101121.06;5022590;28;19918;-69
2023/10/10 10:43:49;;;;;;;3.00;1.90;;;;;;;19.03;100.00;101119.03;5029661;28;20379;-67
2023/10/10 10:46:27;;;;;;;4.18;2.00;;;;;;;19.10;100.00;101118.22;5025595;28;20068;-68
2023/10/10 10:49:02;;;;;;;4.07;2.13;;;;;;;18.91;100.00;101112.09;5027461;28;20229;-67
2023/10/10 10:51:41;;;;;;;3.60;2.05;;;;;;;18.94;100.00;101110.53;5028307;28;20746;-68
2023/10/10 10:54:35;;;;;;;3.33;1.52;;;;;;;19.01;100.00;101109.72;5026048;28;20029;-67
2023/10/10 10:57:03;;;;;;;3.03;1.65;;;;;;;19.02;100.00;101106.56;5025075;28;20038;-68
2023/10/10 10:59:36;;;;;;;2.20;1.58;;;;;;;19.03;100.00;101097.19;5027722;28;20041;-67
2023/10/10 11:02:13;;;;;;;2.35;1.65;;;;;;;19.01;100.00;101093.31;5027446;28;20036;-68
2023/10/10 11:04:42;;;;;;;2.10;1.67;;;;;;;18.97;100.00;101098.78;5027721;28;20115;-66
2023/10/10 11:07:09;;;;;;;3.28;1.75;;;;;;;18.69;100.00;101082.59;5023397;28;20387;-67
2023/10/10 11:09:43;;;;;;;1.55;1.30;;;;;;;18.82;100.00;101072.75;5024268;28;20033;-67
2023/10/10 11:12:09;;;;;;;1.95;1.30;;;;;;;18.92;100.00;101069.97;5026854;28;20041;-67
2023/10/10 11:14:45;;;;;;;3.42;2.05;;;;;;;19.00;100.00;101070.69;5022697;28;20036;-67
2023/10/10 11:17:18;;;;;;;2.42;1.40;;;;;;;19.08;100.00;101057.78;5028160;28;20115;-67
2023/10/10 11:19:46;;;;;;;2.90;1.45;;;;;;;19.24;100.00;101050.59;5027334;28;20025;-67
2023/10/10 11:22:16;;;;;;;3.53;1.88;;;;;;;19.41;100.00;101038.78;5031853;28;20034;-67
2023/10/10 11:24:47;;;;;;;2.65;1.45;;;;;;;19.55;100.00;101030.44;5024871;28;20469;-67
2023/10/10 11:30:24;;;;;;;4.38;2.03;;;;;;;19.50;99.78;101022.69;5024378;28;20073;-67
2023/10/10 11:32:45;;;;;;;3.97;1.90;;;;;;;19.65;99.63;101026.03;5014083;28;20076;-67
2023/10/10 11:35:17;;;;;;;3.83;1.52;;;;;;;19.64;98.58;101027.22;5017044;28;20858;-68
2023/10/10 11:37:47;;;;;;;3.85;1.90;;;;;;;19.79;98.46;101006.75;5017760;28;20057;-66
2023/10/10 11:40:30;;;;;;;6.28;1.85;;;;;;;19.79;97.98;101012.22;5008939;28;20033;-67
2023/10/10 11:43:04;;;;;;;5.45;2.00;;;;;;;19.83;97.74;101006.69;5021711;28;20052;-66
2023/10/10 11:45:38;;;;;;;2.67;1.60;;;;;;;19.94;96.67;101015.56;5025974;28;20040;-68
2023/10/10 11:48:10;;;;;;;5.18;1.42;;;;;;;19.94;96.19;101010.09;5022364;28;20697;-66
2023/10/10 11:50:45;;;;;;;2.55;1.73;;;;;;;19.89;96.71;100994.91;5026166;28;20029;-67
2023/10/10 11:53:19;;;;;;;4.45;1.63;;;;;;;20.08;96.47;100990.75;5023840;28;20033;-66
2023/10/10 11:55:45;;;;;;;2.30;1.50;;;;;;;20.20;96.21;100982.03;5024781;28;20115;-67
2023/10/10 11:58:17;;;;;;;7.55;1.95;;;;;;;19.98;95.36;100976.03;5024849;28;20699;-67
2023/10/10 12:00:43;;;;;;;2.97;1.45;;;;;;;20.12;94.71;100959.44;5023815;28;20564;-66
2023/10/10 12:03:19;;;;;;;1.98;1.35;;;;;;;20.21;94.91;100961.72;5024590;28;20036;-67
2023/10/10 12:05:47;;;;;;;1.52;0.98;;;;;;;20.13;94.24;100952.78;5029788;28;20052;-67
2023/10/10 12:08:24;;;;;;;2.42;1.63;;;;;;;20.02;94.85;100954.09;5028017;28;20494;-66
2023/10/10 12:11:12;;;;;;;1.70;1.25;;;;;;;19.98;93.08;100959.63;5026318;28;20505;-67
2023/10/10 12:13:37;;;;;;;1.98;1.30;;;;;;;20.00;93.26;100953.75;5027550;28;20414;-67
2023/10/10 12:16:07;;;;;;;1.55;1.23;;;;;;;20.11;93.47;100960.63;5027064;28;20021;-66
2023/10/10 12:18:43;;;;;;;3.38;1.30;;;;;;;20.24;93.28;100964.41;5029826;28;20128;-66
2023/10/10 12:21:10;;;;;;;4.38;2.17;;;;;;;20.13;91.89;100949.28;5025345;28;20035;-67
2023/10/10 12:23:36;;;;;;;2.35;1.85;;;;;;;20.22;93.08;100949.56;5027591;28;20025;-66
2023/10/10 12:26:03;;;;;;;2.40;1.50;;;;;;;20.41;92.65;100954.38;5027771;28;20037;-66
2023/10/10 12:28:28;;;;;;;1.55;1.05;;;;;;;20.52;92.59;100957.69;5031861;28;20406;-66
2023/10/10 12:30:57;;;;;;;1.52;1.27;;;;;;;20.57;92.51;100949.03;5032181;28;20029;-66
2023/10/10 12:33:25;;;;;;;2.38;1.30;;;;;;;20.60;91.82;100964.63;5030557;28;20294;-67
2023/10/10 12:35:51;;;;;;;5.43;1.30;;;;;;;20.53;91.04;100956.53;5030323;28;20389;-67
2023/10/10 12:38:21;;;;;;;1.45;1.15;;;;;;;20.50;91.35;100965.56;5027962;28;20037;-66
2023/10/10 12:40:51;;;;;;;1.10;0.90;;;;;;;20.41;92.29;100957.88;5031714;28;20049;-66
2023/10/10 12:43:18;;;;;;;1.55;1.17;;;;;;;20.44;91.50;100962.50;5028702;28;20025;-66
2023/10/10 12:45:45;;;;;;;2.47;1.10;;;;;;;20.43;91.69;100955.50;5029395;28;20034;-67
2023/10/10 12:48:20;;;;;;;1.45;0.90;;;;;;;20.38;91.41;100955.19;5028742;28;20041;-68
2023/10/10 12:50:47;;;;;;;1.73;1.25;;;;;;;20.43;91.32;100952.78;5033210;28;20050;-66
2023/10/10 12:53:18;;;;;;;2.58;1.08;;;;;;;20.45;91.11;100949.63;5026700;28;20038;-66
2023/10/10 12:55:52;;;;;;;3.08;1.08;;;;;;;20.47;91.45;100955.44;5030228;28;20026;-66
2023/10/10 12:58:23;;;;;;;1.65;1.02;;;;;;;20.42;91.46;100944.97;5029632;28;20092;-66
2023/10/10 13:00:52;;;;;;;2.05;0.98;;;;;;;20.40;91.88;100944.63;5022262;28;20469;-66
2023/10/10 13:03:30;;;;;;;1.73;1.15;;;;;;;20.48;91.18;100941.34;5027654;28;20033;-67
2023/10/10 13:06:00;;;;;;;3.40;1.15;;;;;;;20.49;91.46;100940.16;5030720;28;20033;-66
2023/10/10 13:08:38;;;;;;;2.03;1.10;;;;;;;20.49;91.30;100939.38;5030642;28;20037;-66
2023/10/10 13:11:14;;;;;;;1.70;1.17;;;;;;;20.52;91.28;100933.84;5029836;28;20076;-66
2023/10/10 13:13:48;;;;;;;1.77;1.30;;;;;;;20.66;91.54;100938.31;5029495;28;20033;-67
2023/10/10 13:18:54;;;;;;;1.55;1.08;;;;;;;20.70;91.79;100933.56;5033052;28;20057;-67
2023/10/10 13:21:20;;;;;;;1.75;1.08;;;;;;;20.76;91.53;100937.38;5031179;28;20044;-67
2023/10/10 13:23:50;;;;;;;1.58;1.05;;;;;;;20.80;91.32;100935.34;5027910;28;20041;-65
2023/10/10 13:26:16;;;;;;;1.98;1.20;;;;;;;20.90;90.89;100944.59;5023720;28;20039;-66
2023/10/10 13:28:45;;;;;;;3.42;1.17;;;;;;;20.89;90.85;100943.81;5023802;28;20046;-66
2023/10/10 13:31:18;;;;;;;2.85;1.40;;;;;;;20.93;91.08;100952.72;5027058;28;20112;-63
2023/10/10 13:33:44;;;;;;;2.97;1.40;;;;;;;20.94;90.35;100948.81;5020073;28;20128;-65
2023/10/10 13:36:12;;;;;;;2.72;1.55;;;;;;;20.94;90.17;100946.09;5021874;28;20057;-68
2023/10/10 13:38:47;;;;;;;4.95;1.50;;;;;;;20.94;89.55;100937.88;5025524;28;20025;-67
2023/10/10 13:41:20;;;;;;;4.82;1.90;;;;;;;20.87;89.83;100934.44;5025679;28;21850;-66
2023/10/10 13:43:47;;;;;;;2.53;1.50;;;;;;;20.83;89.80;100925.53;5025526;28;20037;-67
2023/10/10 13:46:18;;;;;;;3.75;1.98;;;;;;;20.78;89.91;100921.31;5031130;28;20506;-66
2023/10/10 13:48:44;;;;;;;2.35;1.67;;;;;;;20.72;90.18;100914.75;5028995;28;20072;-66
2023/10/10 13:51:10;;;;;;;2.58;1.65;;;;;;;20.71;90.23;100902.28;5035280;28;20036;-67
2023/10/10 13:53:39;;;;;;;2.13;1.42;;;;;;;20.66;90.35;100898.03;5029132;28;20021;-65
2023/10/10 13:56:05;;;;;;;2.15;1.50;;;;;;;20.62;91.00;100894.59;5027878;28;20038;-67
2023/10/10 13:58:31;;;;;;;2.97;1.50;;;;;;;20.49;92.88;100890.13;5031192;28;20030;-66
2023/10/10 14:01:36;;;;;;;2.85;1.45;;;;;;;20.52;92.75;100881.06;5031443;28;20033;-66
2023/10/10 14:04:00;;;;;;;2.85;1.52;;;;;;;20.51;94.06;100880.31;5029774;28;20037;-67
2023/10/10 14:06:34;;;;;;;4.68;1.65;;;;;;;20.51;94.38;100872.09;5028368;28;20032;-66
2023/10/10 14:09:03;;;;;;;3.13;1.85;;;;;;;20.42;95.24;100865.63;5031793;28;20040;-67
2023/10/10 14:11:32;;;;;;;4.35;2.15;;;;;;;20.48;95.10;100856.50;5026472;28;20040;-67
2023/10/10 14:13:58;;;;;;;2.95;1.98;;;;;;;20.38;96.14;100862.91;5028275;28;20121;-66
2023/10/10 14:16:24;;;;;;;3.53;2.15;;;;;;;20.35;96.70;100858.28;5029122;28;20029;-66
2023/10/10 14:18:50;;;;;;;2.85;1.88;;;;;;;20.28;97.56;100852.94;5032218;28;20498;-66
2023/10/10 14:21:27;;;;;;;2.85;1.88;;;;;;;20.34;97.38;100856.72;5026008;28;20033;-67
2023/10/10 14:24:30;;;;;;;2.97;2.00;;;;;;;20.36;97.47;100848.88;5025371;28;20041;-66
2023/10/10 14:26:48;;;;;;;3.47;2.00;;;;;;;20.39;97.06;100852.75;5020547;28;20045;-66